sensor_id;sensor_type;location;lat;lon;timestamp;P1;durP1;ratioP1;P2;durP2;ratioP2
49378;SDS011;35254;47.990;-1.608;2023-03-23T00:01:00;3.97;;;1.17;;
49378;SDS011;35254;47.990;-1.608;2023-03-23T00:03:26;5.32;;;1.48;;
49378;SDS011;35254;47.990;-1.608;2023-03-23T00:05:53;6.00;;;1.38;;
49378;SDS011;35254;47.990;-1.608;2023-03-23T00:08:24;5.72;;;1.63;;
49378;SDS011;35254;47.990;-1.608;2023-03-23T00:10:51;5.05;;;1.73;;
49378;SDS011;35254;47.990;-1.608;2023-03-23T00:13:21;3.88;;;1.27;;
49378;SDS011;35254;47.990;-1.608;2023-03-23T00:15:50;7.57;;;2.45;;
49378;SDS011;35254;47.990;-1.608;2023-03-23T00:18:20;8.13;;;2.72;;
49378;SDS011;35254;47.990;-1.608;2023-03-23T00:20:53;5.90;;;1.33;;
49378;SDS011;35254;47.990;-1.608;2023-03-23T00:23:21;3.72;;;1.20;;
49378;SDS011;35254;47.990;-1.608;2023-03-23T00:25:54;5.97;;;2.17;;
49378;SDS011;35254;47.990;-1.608;2023-03-23T00:28:23;8.50;;;1.52;;
49378;SDS011;35254;47.990;-1.608;2023-03-23T00:30:55;5.15;;;1.50;;
49378;SDS011;35254;47.990;-1.608;2023-03-23T00:33:28;3.85;;;1.17;;
49378;SDS011;35254;47.990;-1.608;2023-03-23T00:35:55;3.67;;;1.30;;
49378;SDS011;35254;47.990;-1.608;2023-03-23T00:38:22;6.00;;;1.55;;
49378;SDS011;35254;47.990;-1.608;2023-03-23T00:40:48;4.55;;;1.45;;
49378;SDS011;35254;47.990;-1.608;2023-03-23T00:43:18;10.23;;;1.98;;
49378;SDS011;35254;47.990;-1.608;2023-03-23T00:45:45;6.22;;;2.35;;
49378;SDS011;35254;47.990;-1.608;2023-03-23T00:48:18;7.10;;;1.38;;
49378;SDS011;35254;47.990;-1.608;2023-03-23T00:50:44;5.78;;;1.58;;
49378;SDS011;35254;47.990;-1.608;2023-03-23T00:53:10;3.55;;;1.33;;
49378;SDS011;35254;47.990;-1.608;2023-03-23T00:55:36;4.97;;;1.52;;
49378;SDS011;35254;47.990;-1.608;2023-03-23T00:58:01;5.97;;;1.75;;
49378;SDS011;35254;47.990;-1.608;2023-03-23T01:00:27;6.43;;;1.27;;
49378;SDS011;35254;47.990;-1.608;2023-03-23T01:02:53;4.43;;;1.50;;
49378;SDS011;35254;47.990;-1.608;2023-03-23T01:05:19;4.82;;;1.45;;
49378;SDS011;35254;47.990;-1.608;2023-03-23T01:07:45;3.08;;;1.15;;
49378;SDS011;35254;47.990;-1.608;2023-03-23T01:10:12;15.32;;;1.58;;
49378;SDS011;35254;47.990;-1.608;2023-03-23T01:12:41;3.72;;;1.23;;
49378;SDS011;35254;47.990;-1.608;2023-03-23T01:15:14;5.33;;;1.43;;
49378;SDS011;35254;47.990;-1.608;2023-03-23T01:17:42;2.55;;;1.30;;
49378;SDS011;35254;47.990;-1.608;2023-03-23T01:20:09;4.25;;;1.58;;
49378;SDS011;35254;47.990;-1.608;2023-03-23T01:22:36;5.32;;;1.50;;
49378;SDS011;35254;47.990;-1.608;2023-03-23T01:25:02;6.03;;;1.50;;
49378;SDS011;35254;47.990;-1.608;2023-03-23T01:27:28;4.88;;;1.27;;
49378;SDS011;35254;47.990;-1.608;2023-03-23T01:29:54;2.00;;;1.20;;
49378;SDS011;35254;47.990;-1.608;2023-03-23T01:32:20;5.47;;;1.50;;
49378;SDS011;35254;47.990;-1.608;2023-03-23T01:34:46;4.40;;;1.35;;
49378;SDS011;35254;47.990;-1.608;2023-03-23T01:37:11;2.58;;;1.05;;
49378;SDS011;35254;47.990;-1.608;2023-03-23T01:39:37;2.28;;;0.82;;
49378;SDS011;35254;47.990;-1.608;2023-03-23T01:42:03;4.15;;;1.65;;
49378;SDS011;35254;47.990;-1.608;2023-03-23T01:46:55;7.25;;;1.38;;
49378;SDS011;35254;47.990;-1.608;2023-03-23T01:49:22;4.88;;;1.75;;
49378;SDS011;35254;47.990;-1.608;2023-03-23T01:51:55;4.97;;;1.60;;
49378;SDS011;35254;47.990;-1.608;2023-03-23T01:54:24;4.13;;;1.27;;
49378;SDS011;35254;47.990;-1.608;2023-03-23T01:56:53;4.63;;;1.25;;
49378;SDS011;35254;47.990;-1.608;2023-03-23T01:59:20;2.60;;;1.15;;
49378;SDS011;35254;47.990;-1.608;2023-03-23T02:01:47;4.25;;;1.13;;
49378;SDS011;35254;47.990;-1.608;2023-03-23T02:04:14;4.35;;;1.23;;
49378;SDS011;35254;47.990;-1.608;2023-03-23T02:06:42;5.38;;;1.33;;
49378;SDS011;35254;47.990;-1.608;2023-03-23T02:09:09;4.22;;;1.25;;
49378;SDS011;35254;47.990;-1.608;2023-03-23T02:11:38;4.72;;;1.25;;
49378;SDS011;35254;47.990;-1.608;2023-03-23T02:14:05;3.00;;;1.00;;
49378;SDS011;35254;47.990;-1.608;2023-03-23T02:16:43;4.63;;;1.65;;
49378;SDS011;35254;47.990;-1.608;2023-03-23T02:22:24;3.95;;;0.90;;
49378;SDS011;35254;47.990;-1.608;2023-03-23T02:30:32;6.75;;;1.65;;
49378;SDS011;35254;47.990;-1.608;2023-03-23T02:35:49;4.38;;;1.10;;
49378;SDS011;35254;47.990;-1.608;2023-03-23T02:38:18;3.85;;;1.30;;
49378;SDS011;35254;47.990;-1.608;2023-03-23T02:40:49;5.07;;;1.20;;
49378;SDS011;35254;47.990;-1.608;2023-03-23T02:43:20;3.08;;;1.20;;
49378;SDS011;35254;47.990;-1.608;2023-03-23T02:45:48;4.82;;;1.05;;
49378;SDS011;35254;47.990;-1.608;2023-03-23T02:48:15;7.65;;;0.98;;
49378;SDS011;35254;47.990;-1.608;2023-03-23T02:50:45;7.13;;;1.40;;
49378;SDS011;35254;47.990;-1.608;2023-03-23T02:53:15;5.30;;;1.33;;
49378;SDS011;35254;47.990;-1.608;2023-03-23T02:55:45;2.58;;;1.00;;
49378;SDS011;35254;47.990;-1.608;2023-03-23T02:58:13;4.68;;;1.00;;
49378;SDS011;35254;47.990;-1.608;2023-03-23T03:00:39;7.20;;;1.80;;
49378;SDS011;35254;47.990;-1.608;2023-03-23T03:03:07;6.68;;;1.75;;
49378;SDS011;35254;47.990;-1.608;2023-03-23T03:11:13;5.30;;;1.02;;
49378;SDS011;35254;47.990;-1.608;2023-03-23T03:13:46;3.88;;;1.08;;
49378;SDS011;35254;47.990;-1.608;2023-03-23T03:16:38;7.65;;;1.60;;
49378;SDS011;35254;47.990;-1.608;2023-03-23T03:19:20;4.07;;;1.38;;
49378;SDS011;35254;47.990;-1.608;2023-03-23T03:21:51;7.13;;;1.40;;
49378;SDS011;35254;47.990;-1.608;2023-03-23T03:24:19;5.35;;;1.75;;
49378;SDS011;35254;47.990;-1.608;2023-03-23T03:26:47;3.83;;;0.70;;
49378;SDS011;35254;47.990;-1.608;2023-03-23T03:29:16;5.70;;;1.60;;
49378;SDS011;35254;47.990;-1.608;2023-03-23T03:31:44;3.63;;;1.00;;
49378;SDS011;35254;47.990;-1.608;2023-03-23T03:34:13;4.60;;;1.35;;
49378;SDS011;35254;47.990;-1.608;2023-03-23T03:36:42;8.10;;;1.52;;
49378;SDS011;35254;47.990;-1.608;2023-03-23T03:39:10;6.72;;;1.40;;
49378;SDS011;35254;47.990;-1.608;2023-03-23T03:41:40;2.45;;;0.90;;
49378;SDS011;35254;47.990;-1.608;2023-03-23T03:44:07;6.32;;;1.40;;
49378;SDS011;35254;47.990;-1.608;2023-03-23T03:46:33;4.20;;;1.45;;
49378;SDS011;35254;47.990;-1.608;2023-03-23T03:49:00;7.95;;;1.70;;
49378;SDS011;35254;47.990;-1.608;2023-03-23T03:51:27;3.63;;;1.23;;
49378;SDS011;35254;47.990;-1.608;2023-03-23T03:53:54;4.55;;;1.10;;
49378;SDS011;35254;47.990;-1.608;2023-03-23T03:56:20;5.35;;;1.33;;
49378;SDS011;35254;47.990;-1.608;2023-03-23T03:58:47;3.97;;;1.60;;
49378;SDS011;35254;47.990;-1.608;2023-03-23T04:01:14;4.88;;;1.23;;
49378;SDS011;35254;47.990;-1.608;2023-03-23T04:03:41;5.95;;;1.70;;
49378;SDS011;35254;47.990;-1.608;2023-03-23T04:06:07;16.90;;;3.08;;
49378;SDS011;35254;47.990;-1.608;2023-03-23T04:08:34;2.42;;;1.10;;
49378;SDS011;35254;47.990;-1.608;2023-03-23T04:11:00;5.57;;;1.48;;
49378;SDS011;35254;47.990;-1.608;2023-03-23T04:13:26;6.60;;;1.80;;
49378;SDS011;35254;47.990;-1.608;2023-03-23T04:15:52;4.03;;;1.50;;
49378;SDS011;35254;47.990;-1.608;2023-03-23T04:18:17;5.82;;;1.40;;
49378;SDS011;35254;47.990;-1.608;2023-03-23T04:20:44;6.20;;;2.30;;
49378;SDS011;35254;47.990;-1.608;2023-03-23T04:23:12;5.43;;;1.38;;
49378;SDS011;35254;47.990;-1.608;2023-03-23T04:25:38;4.75;;;1.70;;
49378;SDS011;35254;47.990;-1.608;2023-03-23T04:28:07;6.50;;;1.50;;
49378;SDS011;35254;47.990;-1.608;2023-03-23T04:30:35;7.55;;;1.65;;
49378;SDS011;35254;47.990;-1.608;2023-03-23T04:33:01;3.28;;;1.58;;
49378;SDS011;35254;47.990;-1.608;2023-03-23T04:35:27;5.55;;;1.42;;
49378;SDS011;35254;47.990;-1.608;2023-03-23T04:37:54;5.57;;;1.08;;
49378;SDS011;35254;47.990;-1.608;2023-03-23T04:40:21;5.20;;;1.55;;
49378;SDS011;35254;47.990;-1.608;2023-03-23T04:42:47;6.18;;;1.40;;
49378;SDS011;35254;47.990;-1.608;2023-03-23T04:45:16;7.25;;;1.52;;
49378;SDS011;35254;47.990;-1.608;2023-03-23T04:47:46;9.13;;;2.13;;
49378;SDS011;35254;47.990;-1.608;2023-03-23T04:50:18;5.07;;;1.48;;
49378;SDS011;35254;47.990;-1.608;2023-03-23T04:52:46;7.85;;;1.58;;
49378;SDS011;35254;47.990;-1.608;2023-03-23T04:55:12;4.28;;;2.15;;
49378;SDS011;35254;47.990;-1.608;2023-03-23T04:57:38;8.75;;;2.25;;
49378;SDS011;35254;47.990;-1.608;2023-03-23T05:00:05;9.10;;;1.40;;
49378;SDS011;35254;47.990;-1.608;2023-03-23T05:02:39;5.03;;;1.73;;
49378;SDS011;35254;47.990;-1.608;2023-03-23T05:05:07;5.93;;;1.58;;
49378;SDS011;35254;47.990;-1.608;2023-03-23T05:07:33;8.82;;;1.42;;
49378;SDS011;35254;47.990;-1.608;2023-03-23T05:09:59;4.38;;;1.10;;
49378;SDS011;35254;47.990;-1.608;2023-03-23T05:12:25;6.15;;;1.58;;
49378;SDS011;35254;47.990;-1.608;2023-03-23T05:14:51;7.32;;;1.50;;
49378;SDS011;35254;47.990;-1.608;2023-03-23T05:17:17;3.50;;;1.05;;
49378;SDS011;35254;47.990;-1.608;2023-03-23T05:19:43;4.57;;;1.17;;
49378;SDS011;35254;47.990;-1.608;2023-03-23T05:22:12;6.22;;;1.77;;
49378;SDS011;35254;47.990;-1.608;2023-03-23T05:24:41;5.78;;;1.70;;
49378;SDS011;35254;47.990;-1.608;2023-03-23T05:27:07;4.25;;;1.35;;
49378;SDS011;35254;47.990;-1.608;2023-03-23T05:29:34;3.50;;;1.55;;
49378;SDS011;35254;47.990;-1.608;2023-03-23T05:32:04;4.53;;;1.63;;
49378;SDS011;35254;47.990;-1.608;2023-03-23T05:34:30;5.38;;;1.77;;
49378;SDS011;35254;47.990;-1.608;2023-03-23T05:36:58;5.28;;;1.35;;
49378;SDS011;35254;47.990;-1.608;2023-03-23T05:39:24;3.65;;;1.15;;
49378;SDS011;35254;47.990;-1.608;2023-03-23T05:41:50;4.53;;;1.52;;
49378;SDS011;35254;47.990;-1.608;2023-03-23T05:44:16;5.65;;;1.58;;
49378;SDS011;35254;47.990;-1.608;2023-03-23T05:46:42;5.07;;;1.05;;
49378;SDS011;35254;47.990;-1.608;2023-03-23T05:49:08;4.93;;;1.83;;
49378;SDS011;35254;47.990;-1.608;2023-03-23T05:51:34;7.60;;;1.50;;
49378;SDS011;35254;47.990;-1.608;2023-03-23T05:54:00;4.45;;;1.63;;
49378;SDS011;35254;47.990;-1.608;2023-03-23T05:56:26;9.10;;;2.20;;
49378;SDS011;35254;47.990;-1.608;2023-03-23T05:58:56;7.28;;;1.80;;
49378;SDS011;35254;47.990;-1.608;2023-03-23T06:01:23;4.25;;;1.38;;
49378;SDS011;35254;47.990;-1.608;2023-03-23T06:03:49;7.72;;;2.05;;
49378;SDS011;35254;47.990;-1.608;2023-03-23T06:06:19;8.57;;;1.30;;
49378;SDS011;35254;47.990;-1.608;2023-03-23T06:08:45;5.43;;;1.63;;
49378;SDS011;35254;47.990;-1.608;2023-03-23T06:11:11;4.60;;;1.23;;
49378;SDS011;35254;47.990;-1.608;2023-03-23T06:13:37;5.70;;;1.73;;
49378;SDS011;35254;47.990;-1.608;2023-03-23T06:16:02;4.72;;;1.83;;
49378;SDS011;35254;47.990;-1.608;2023-03-23T06:18:29;7.88;;;1.90;;
49378;SDS011;35254;47.990;-1.608;2023-03-23T06:20:54;1.70;;;0.93;;
49378;SDS011;35254;47.990;-1.608;2023-03-23T06:23:20;8.32;;;1.83;;
49378;SDS011;35254;47.990;-1.608;2023-03-23T06:25:46;10.20;;;1.75;;
49378;SDS011;35254;47.990;-1.608;2023-03-23T06:28:11;7.65;;;2.85;;
49378;SDS011;35254;47.990;-1.608;2023-03-23T06:30:37;6.57;;;1.88;;
49378;SDS011;35254;47.990;-1.608;2023-03-23T06:33:03;7.20;;;1.33;;
49378;SDS011;35254;47.990;-1.608;2023-03-23T06:35:30;5.15;;;1.50;;
49378;SDS011;35254;47.990;-1.608;2023-03-23T06:37:57;6.97;;;1.55;;
49378;SDS011;35254;47.990;-1.608;2023-03-23T06:40:26;5.90;;;1.67;;
49378;SDS011;35254;47.990;-1.608;2023-03-23T06:42:53;7.60;;;1.75;;
49378;SDS011;35254;47.990;-1.608;2023-03-23T06:45:18;8.27;;;2.25;;
49378;SDS011;35254;47.990;-1.608;2023-03-23T06:47:45;4.63;;;1.35;;
49378;SDS011;35254;47.990;-1.608;2023-03-23T06:50:13;8.82;;;2.70;;
49378;SDS011;35254;47.990;-1.608;2023-03-23T06:52:40;7.43;;;1.13;;
49378;SDS011;35254;47.990;-1.608;2023-03-23T06:55:06;10.45;;;2.08;;
49378;SDS011;35254;47.990;-1.608;2023-03-23T06:57:32;6.10;;;1.50;;
49378;SDS011;35254;47.990;-1.608;2023-03-23T06:59:58;3.67;;;1.20;;
49378;SDS011;35254;47.990;-1.608;2023-03-23T07:02:23;10.13;;;1.33;;
49378;SDS011;35254;47.990;-1.608;2023-03-23T07:04:50;7.57;;;1.60;;
49378;SDS011;35254;47.990;-1.608;2023-03-23T07:07:16;3.80;;;1.30;;
49378;SDS011;35254;47.990;-1.608;2023-03-23T07:09:43;10.63;;;2.17;;
49378;SDS011;35254;47.990;-1.608;2023-03-23T07:12:10;4.63;;;1.33;;
49378;SDS011;35254;47.990;-1.608;2023-03-23T07:14:35;7.35;;;1.50;;
49378;SDS011;35254;47.990;-1.608;2023-03-23T07:17:02;11.10;;;2.30;;
49378;SDS011;35254;47.990;-1.608;2023-03-23T07:19:28;7.07;;;1.50;;
49378;SDS011;35254;47.990;-1.608;2023-03-23T07:21:54;6.93;;;2.17;;
49378;SDS011;35254;47.990;-1.608;2023-03-23T07:24:21;8.68;;;2.53;;
49378;SDS011;35254;47.990;-1.608;2023-03-23T07:26:47;7.55;;;1.63;;
49378;SDS011;35254;47.990;-1.608;2023-03-23T07:29:13;13.57;;;2.15;;
49378;SDS011;35254;47.990;-1.608;2023-03-23T07:31:38;11.63;;;2.72;;
49378;SDS011;35254;47.990;-1.608;2023-03-23T07:34:04;6.88;;;2.20;;
49378;SDS011;35254;47.990;-1.608;2023-03-23T07:36:31;15.27;;;2.53;;
49378;SDS011;35254;47.990;-1.608;2023-03-23T07:38:57;11.10;;;2.13;;
49378;SDS011;35254;47.990;-1.608;2023-03-23T07:41:24;11.90;;;2.20;;
49378;SDS011;35254;47.990;-1.608;2023-03-23T07:43:49;11.70;;;2.17;;
49378;SDS011;35254;47.990;-1.608;2023-03-23T07:46:15;11.77;;;2.60;;
49378;SDS011;35254;47.990;-1.608;2023-03-23T07:48:41;9.38;;;1.95;;
49378;SDS011;35254;47.990;-1.608;2023-03-23T07:51:07;9.43;;;2.15;;
49378;SDS011;35254;47.990;-1.608;2023-03-23T07:53:33;11.68;;;2.05;;
49378;SDS011;35254;47.990;-1.608;2023-03-23T07:55:59;7.82;;;1.95;;
49378;SDS011;35254;47.990;-1.608;2023-03-23T07:58:25;13.23;;;1.98;;
49378;SDS011;35254;47.990;-1.608;2023-03-23T08:00:53;9.88;;;2.65;;
49378;SDS011;35254;47.990;-1.608;2023-03-23T08:03:20;12.10;;;2.08;;
49378;SDS011;35254;47.990;-1.608;2023-03-23T08:05:45;6.93;;;1.95;;
49378;SDS011;35254;47.990;-1.608;2023-03-23T08:08:11;5.82;;;1.90;;
49378;SDS011;35254;47.990;-1.608;2023-03-23T08:10:37;14.35;;;2.20;;
49378;SDS011;35254;47.990;-1.608;2023-03-23T08:13:03;10.55;;;2.33;;
49378;SDS011;35254;47.990;-1.608;2023-03-23T08:15:29;10.75;;;2.17;;
49378;SDS011;35254;47.990;-1.608;2023-03-23T08:17:54;4.90;;;1.85;;
49378;SDS011;35254;47.990;-1.608;2023-03-23T08:20:20;9.15;;;1.90;;
49378;SDS011;35254;47.990;-1.608;2023-03-23T08:22:54;6.20;;;1.70;;
49378;SDS011;35254;47.990;-1.608;2023-03-23T08:25:20;14.35;;;2.15;;
49378;SDS011;35254;47.990;-1.608;2023-03-23T08:27:47;8.20;;;2.70;;
49378;SDS011;35254;47.990;-1.608;2023-03-23T08:30:14;8.98;;;2.38;;
49378;SDS011;35254;47.990;-1.608;2023-03-23T08:32:44;10.98;;;2.53;;
49378;SDS011;35254;47.990;-1.608;2023-03-23T08:35:12;12.23;;;3.72;;
49378;SDS011;35254;47.990;-1.608;2023-03-23T08:37:40;13.38;;;3.80;;
49378;SDS011;35254;47.990;-1.608;2023-03-23T08:40:07;11.95;;;3.03;;
49378;SDS011;35254;47.990;-1.608;2023-03-23T08:42:39;14.45;;;3.85;;
49378;SDS011;35254;47.990;-1.608;2023-03-23T08:45:10;12.73;;;2.80;;
49378;SDS011;35254;47.990;-1.608;2023-03-23T08:47:38;12.73;;;2.25;;
49378;SDS011;35254;47.990;-1.608;2023-03-23T08:50:04;15.63;;;3.08;;
49378;SDS011;35254;47.990;-1.608;2023-03-23T08:52:31;13.13;;;3.13;;
49378;SDS011;35254;47.990;-1.608;2023-03-23T08:54:57;8.10;;;2.50;;
49378;SDS011;35254;47.990;-1.608;2023-03-23T08:57:23;10.85;;;2.53;;
49378;SDS011;35254;47.990;-1.608;2023-03-23T08:59:50;17.42;;;3.20;;
49378;SDS011;35254;47.990;-1.608;2023-03-23T09:02:16;17.00;;;3.55;;
49378;SDS011;35254;47.990;-1.608;2023-03-23T09:04:42;12.38;;;3.33;;
49378;SDS011;35254;47.990;-1.608;2023-03-23T09:07:09;11.65;;;3.33;;
49378;SDS011;35254;47.990;-1.608;2023-03-23T09:09:36;8.65;;;2.53;;
49378;SDS011;35254;47.990;-1.608;2023-03-23T09:12:03;31.00;;;3.00;;
49378;SDS011;35254;47.990;-1.608;2023-03-23T09:14:29;13.13;;;3.30;;
49378;SDS011;35254;47.990;-1.608;2023-03-23T09:16:55;12.60;;;3.42;;
49378;SDS011;35254;47.990;-1.608;2023-03-23T09:19:20;12.90;;;4.78;;
49378;SDS011;35254;47.990;-1.608;2023-03-23T09:21:46;14.27;;;2.60;;
49378;SDS011;35254;47.990;-1.608;2023-03-23T09:24:11;15.35;;;3.92;;
49378;SDS011;35254;47.990;-1.608;2023-03-23T09:26:37;11.90;;;3.65;;
49378;SDS011;35254;47.990;-1.608;2023-03-23T09:29:03;12.05;;;3.13;;
49378;SDS011;35254;47.990;-1.608;2023-03-23T09:31:29;17.10;;;3.80;;
49378;SDS011;35254;47.990;-1.608;2023-03-23T09:33:56;11.75;;;3.30;;
49378;SDS011;35254;47.990;-1.608;2023-03-23T09:36:24;14.95;;;3.03;;
49378;SDS011;35254;47.990;-1.608;2023-03-23T09:38:51;13.60;;;3.25;;
49378;SDS011;35254;47.990;-1.608;2023-03-23T09:49:26;16.17;;;4.05;;
49378;SDS011;35254;47.990;-1.608;2023-03-23T09:52:01;17.08;;;3.13;;
49378;SDS011;35254;47.990;-1.608;2023-03-23T09:57:05;15.32;;;3.33;;
49378;SDS011;35254;47.990;-1.608;2023-03-23T10:00:02;10.65;;;2.85;;
49378;SDS011;35254;47.990;-1.608;2023-03-23T10:07:59;10.23;;;2.63;;
49378;SDS011;35254;47.990;-1.608;2023-03-23T10:11:12;10.68;;;3.05;;
49378;SDS011;35254;47.990;-1.608;2023-03-23T10:13:34;14.82;;;2.92;;
49378;SDS011;35254;47.990;-1.608;2023-03-23T10:16:25;10.18;;;3.22;;
49378;SDS011;35254;47.990;-1.608;2023-03-23T10:18:56;17.13;;;4.10;;
49378;SDS011;35254;47.990;-1.608;2023-03-23T10:21:37;8.57;;;2.25;;
49378;SDS011;35254;47.990;-1.608;2023-03-23T10:24:08;12.48;;;2.63;;
49378;SDS011;35254;47.990;-1.608;2023-03-23T10:29:17;12.27;;;2.72;;
49378;SDS011;35254;47.990;-1.608;2023-03-23T10:31:56;9.55;;;3.17;;
49378;SDS011;35254;47.990;-1.608;2023-03-23T10:37:29;10.20;;;2.75;;
49378;SDS011;35254;47.990;-1.608;2023-03-23T10:40:03;9.80;;;2.25;;
49378;SDS011;35254;47.990;-1.608;2023-03-23T10:42:35;11.63;;;2.85;;
49378;SDS011;35254;47.990;-1.608;2023-03-23T10:47:58;6.38;;;2.47;;
49378;SDS011;35254;47.990;-1.608;2023-03-23T10:50:33;7.35;;;2.38;;
49378;SDS011;35254;47.990;-1.608;2023-03-23T10:53:03;7.15;;;2.25;;
49378;SDS011;35254;47.990;-1.608;2023-03-23T10:55:40;5.93;;;1.75;;
49378;SDS011;35254;47.990;-1.608;2023-03-23T10:58:12;10.60;;;2.35;;
49378;SDS011;35254;47.990;-1.608;2023-03-23T11:00:54;9.45;;;2.50;;
49378;SDS011;35254;47.990;-1.608;2023-03-23T11:03:23;8.30;;;2.50;;
49378;SDS011;35254;47.990;-1.608;2023-03-23T11:06:06;7.47;;;2.25;;
49378;SDS011;35254;47.990;-1.608;2023-03-23T11:08:46;4.90;;;1.65;;
49378;SDS011;35254;47.990;-1.608;2023-03-23T11:11:19;7.88;;;2.35;;
49378;SDS011;35254;47.990;-1.608;2023-03-23T11:13:49;11.95;;;2.78;;
49378;SDS011;35254;47.990;-1.608;2023-03-23T11:16:22;7.85;;;2.45;;
49378;SDS011;35254;47.990;-1.608;2023-03-23T11:18:51;6.10;;;1.88;;
49378;SDS011;35254;47.990;-1.608;2023-03-23T11:21:17;6.45;;;2.67;;
49378;SDS011;35254;47.990;-1.608;2023-03-23T11:23:50;7.57;;;3.08;;
49378;SDS011;35254;47.990;-1.608;2023-03-23T11:26:22;12.88;;;3.85;;
49378;SDS011;35254;47.990;-1.608;2023-03-23T11:28:58;19.33;;;4.82;;
49378;SDS011;35254;47.990;-1.608;2023-03-23T11:31:45;29.67;;;6.35;;
49378;SDS011;35254;47.990;-1.608;2023-03-23T11:45:13;28.33;;;5.35;;
49378;SDS011;35254;47.990;-1.608;2023-03-23T11:47:48;20.73;;;4.15;;
49378;SDS011;35254;47.990;-1.608;2023-03-23T11:50:51;19.35;;;4.30;;
49378;SDS011;35254;47.990;-1.608;2023-03-23T11:56:19;12.65;;;3.60;;
49378;SDS011;35254;47.990;-1.608;2023-03-23T11:58:54;12.40;;;3.47;;
49378;SDS011;35254;47.990;-1.608;2023-03-23T12:09:23;12.95;;;3.50;;
49378;SDS011;35254;47.990;-1.608;2023-03-23T12:23:23;11.38;;;2.63;;
49378;SDS011;35254;47.990;-1.608;2023-03-23T12:34:53;8.40;;;3.03;;
49378;SDS011;35254;47.990;-1.608;2023-03-23T12:37:34;14.20;;;3.38;;
49378;SDS011;35254;47.990;-1.608;2023-03-23T12:43:02;9.82;;;2.65;;
49378;SDS011;35254;47.990;-1.608;2023-03-23T12:48:24;12.73;;;2.90;;
49378;SDS011;35254;47.990;-1.608;2023-03-23T12:51:07;14.38;;;4.30;;
49378;SDS011;35254;47.990;-1.608;2023-03-23T12:53:50;14.90;;;2.65;;
49378;SDS011;35254;47.990;-1.608;2023-03-23T12:56:36;11.85;;;2.67;;
49378;SDS011;35254;47.990;-1.608;2023-03-23T12:59:14;8.93;;;2.25;;
49378;SDS011;35254;47.990;-1.608;2023-03-23T13:01:48;8.18;;;3.78;;
49378;SDS011;35254;47.990;-1.608;2023-03-23T13:04:25;6.53;;;2.15;;
49378;SDS011;35254;47.990;-1.608;2023-03-23T13:06:55;7.13;;;2.40;;
49378;SDS011;35254;47.990;-1.608;2023-03-23T13:09:36;8.82;;;2.70;;
49378;SDS011;35254;47.990;-1.608;2023-03-23T13:15:00;9.77;;;2.33;;
49378;SDS011;35254;47.990;-1.608;2023-03-23T13:17:47;10.15;;;2.72;;
49378;SDS011;35254;47.990;-1.608;2023-03-23T13:23:20;10.23;;;2.95;;
49378;SDS011;35254;47.990;-1.608;2023-03-23T13:31:21;7.15;;;2.15;;
49378;SDS011;35254;47.990;-1.608;2023-03-23T13:34:38;12.27;;;2.53;;
49378;SDS011;35254;47.990;-1.608;2023-03-23T13:36:52;9.55;;;3.85;;
49378;SDS011;35254;47.990;-1.608;2023-03-23T13:39:32;4.75;;;1.85;;
49378;SDS011;35254;47.990;-1.608;2023-03-23T13:42:04;9.05;;;2.42;;
49378;SDS011;35254;47.990;-1.608;2023-03-23T13:50:01;8.70;;;2.15;;
49378;SDS011;35254;47.990;-1.608;2023-03-23T14:05:40;9.15;;;2.38;;
49378;SDS011;35254;47.990;-1.608;2023-03-23T14:10:44;5.28;;;2.53;;
49378;SDS011;35254;47.990;-1.608;2023-03-23T14:13:16;5.20;;;1.77;;
49378;SDS011;35254;47.990;-1.608;2023-03-23T14:21:30;14.00;;;3.03;;
49378;SDS011;35254;47.990;-1.608;2023-03-23T14:24:02;5.93;;;2.42;;
49378;SDS011;35254;47.990;-1.608;2023-03-23T14:26:35;7.10;;;1.95;;
49378;SDS011;35254;47.990;-1.608;2023-03-23T14:29:01;8.32;;;2.33;;
49378;SDS011;35254;47.990;-1.608;2023-03-23T14:31:29;7.10;;;1.98;;
49378;SDS011;35254;47.990;-1.608;2023-03-23T14:33:55;5.53;;;1.88;;
49378;SDS011;35254;47.990;-1.608;2023-03-23T14:36:27;6.57;;;1.67;;
49378;SDS011;35254;47.990;-1.608;2023-03-23T14:39:04;10.57;;;2.80;;
49378;SDS011;35254;47.990;-1.608;2023-03-23T14:41:49;10.05;;;2.47;;
49378;SDS011;35254;47.990;-1.608;2023-03-23T14:44:18;7.03;;;2.20;;
49378;SDS011;35254;47.990;-1.608;2023-03-23T14:46:50;8.45;;;2.28;;
49378;SDS011;35254;47.990;-1.608;2023-03-23T14:49:19;8.73;;;2.47;;
49378;SDS011;35254;47.990;-1.608;2023-03-23T14:51:52;4.88;;;1.92;;
49378;SDS011;35254;47.990;-1.608;2023-03-23T14:54:24;10.20;;;2.55;;
49378;SDS011;35254;47.990;-1.608;2023-03-23T14:56:52;5.93;;;1.85;;
49378;SDS011;35254;47.990;-1.608;2023-03-23T14:59:19;6.93;;;2.20;;
49378;SDS011;35254;47.990;-1.608;2023-03-23T15:01:46;7.75;;;1.83;;
49378;SDS011;35254;47.990;-1.608;2023-03-23T15:04:17;6.00;;;1.95;;
49378;SDS011;35254;47.990;-1.608;2023-03-23T15:06:49;7.03;;;2.30;;
49378;SDS011;35254;47.990;-1.608;2023-03-23T15:09:20;8.77;;;2.55;;
49378;SDS011;35254;47.990;-1.608;2023-03-23T15:11:51;7.93;;;2.03;;
49378;SDS011;35254;47.990;-1.608;2023-03-23T15:14:45;5.90;;;1.65;;
49378;SDS011;35254;47.990;-1.608;2023-03-23T15:17:11;5.63;;;1.88;;
49378;SDS011;35254;47.990;-1.608;2023-03-23T15:19:48;7.72;;;1.95;;
49378;SDS011;35254;47.990;-1.608;2023-03-23T15:24:47;8.32;;;2.08;;
49378;SDS011;35254;47.990;-1.608;2023-03-23T15:30:12;5.22;;;1.70;;
49378;SDS011;35254;47.990;-1.608;2023-03-23T15:32:40;9.95;;;2.42;;
49378;SDS011;35254;47.990;-1.608;2023-03-23T15:35:15;4.70;;;1.45;;
49378;SDS011;35254;47.990;-1.608;2023-03-23T15:37:48;6.63;;;1.67;;
49378;SDS011;35254;47.990;-1.608;2023-03-23T15:40:16;7.50;;;1.85;;
49378;SDS011;35254;47.990;-1.608;2023-03-23T15:42:44;3.22;;;1.63;;
49378;SDS011;35254;47.990;-1.608;2023-03-23T15:47:37;8.95;;;2.28;;
49378;SDS011;35254;47.990;-1.608;2023-03-23T15:52:52;10.07;;;2.53;;
49378;SDS011;35254;47.990;-1.608;2023-03-23T15:57:47;8.60;;;1.60;;
49378;SDS011;35254;47.990;-1.608;2023-03-23T16:00:14;3.92;;;1.60;;
49378;SDS011;35254;47.990;-1.608;2023-03-23T16:02:41;4.30;;;1.38;;
49378;SDS011;35254;47.990;-1.608;2023-03-23T16:05:10;7.57;;;1.65;;
49378;SDS011;35254;47.990;-1.608;2023-03-23T16:07:36;4.25;;;1.70;;
49378;SDS011;35254;47.990;-1.608;2023-03-23T16:10:03;3.10;;;1.50;;
49378;SDS011;35254;47.990;-1.608;2023-03-23T16:12:29;12.93;;;2.38;;
49378;SDS011;35254;47.990;-1.608;2023-03-23T16:14:55;6.72;;;1.67;;
49378;SDS011;35254;47.990;-1.608;2023-03-23T16:17:21;3.35;;;1.40;;
49378;SDS011;35254;47.990;-1.608;2023-03-23T16:19:46;4.57;;;1.42;;
49378;SDS011;35254;47.990;-1.608;2023-03-23T16:22:12;11.13;;;1.67;;
49378;SDS011;35254;47.990;-1.608;2023-03-23T16:24:38;3.28;;;1.45;;
49378;SDS011;35254;47.990;-1.608;2023-03-23T16:27:03;2.75;;;1.25;;
49378;SDS011;35254;47.990;-1.608;2023-03-23T16:29:30;3.15;;;1.60;;
49378;SDS011;35254;47.990;-1.608;2023-03-23T16:31:55;4.47;;;1.20;;
49378;SDS011;35254;47.990;-1.608;2023-03-23T16:34:21;10.82;;;1.55;;
49378;SDS011;35254;47.990;-1.608;2023-03-23T16:36:47;4.20;;;1.10;;
49378;SDS011;35254;47.990;-1.608;2023-03-23T16:39:13;10.23;;;1.02;;
49378;SDS011;35254;47.990;-1.608;2023-03-23T16:41:43;5.32;;;1.58;;
49378;SDS011;35254;47.990;-1.608;2023-03-23T16:44:09;3.70;;;1.50;;
49378;SDS011;35254;47.990;-1.608;2023-03-23T16:46:34;4.22;;;1.27;;
49378;SDS011;35254;47.990;-1.608;2023-03-23T16:49:00;3.78;;;2.00;;
49378;SDS011;35254;47.990;-1.608;2023-03-23T16:51:26;3.22;;;1.20;;
49378;SDS011;35254;47.990;-1.608;2023-03-23T16:53:51;5.63;;;1.17;;
49378;SDS011;35254;47.990;-1.608;2023-03-23T16:56:17;3.72;;;1.30;;
49378;SDS011;35254;47.990;-1.608;2023-03-23T16:58:42;5.20;;;1.10;;
49378;SDS011;35254;47.990;-1.608;2023-03-23T17:01:08;4.53;;;1.48;;
49378;SDS011;35254;47.990;-1.608;2023-03-23T17:03:34;7.70;;;1.00;;
49378;SDS011;35254;47.990;-1.608;2023-03-23T17:06:00;10.88;;;1.20;;